sensor_id;sensor_type;location;lat;lon;timestamp;temperature;humidity
41904;DHT22;27586;51.124;4.182;2024-02-21T00:02:18;9.90;99.90
41904;DHT22;27586;51.124;4.182;2024-02-21T00:04:44;9.90;99.90
41904;DHT22;27586;51.124;4.182;2024-02-21T00:07:09;10.00;99.90
41904;DHT22;27586;51.124;4.182;2024-02-21T00:09:35;10.00;99.90
41904;DHT22;27586;51.124;4.182;2024-02-21T00:12:01;9.90;99.90
41904;DHT22;27586;51.124;4.182;2024-02-21T00:14:26;9.80;99.90
41904;DHT22;27586;51.124;4.182;2024-02-21T00:16:52;9.90;99.90
41904;DHT22;27586;51.124;4.182;2024-02-21T00:19:18;9.80;99.90
41904;DHT22;27586;51.124;4.182;2024-02-21T00:21:43;9.80;99.90
41904;DHT22;27586;51.124;4.182;2024-02-21T00:24:09;9.80;99.90
41904;DHT22;27586;51.124;4.182;2024-02-21T00:26:35;9.90;99.90
41904;DHT22;27586;51.124;4.182;2024-02-21T00:29:00;9.80;99.90
41904;DHT22;27586;51.124;4.182;2024-02-21T00:31:26;9.70;99.90
41904;DHT22;27586;51.124;4.182;2024-02-21T00:33:51;9.60;99.90
41904;DHT22;27586;51.124;4.182;2024-02-21T00:36:17;9.50;99.90
41904;DHT22;27586;51.124;4.182;2024-02-21T00:38:43;9.60;99.90
41904;DHT22;27586;51.124;4.182;2024-02-21T00:41:08;9.50;99.90
41904;DHT22;27586;51.124;4.182;2024-02-21T00:43:34;9.60;99.90
41904;DHT22;27586;51.124;4.182;2024-02-21T00:46:00;9.60;99.90
41904;DHT22;27586;51.124;4.182;2024-02-21T00:48:25;9.60;99.90
41904;DHT22;27586;51.124;4.182;2024-02-21T00:50:51;9.70;99.90
41904;DHT22;27586;51.124;4.182;2024-02-21T00:53:17;9.60;99.90
41904;DHT22;27586;51.124;4.182;2024-02-21T00:55:42;9.70;99.90
41904;DHT22;27586;51.124;4.182;2024-02-21T00:58:09;9.70;99.90
41904;DHT22;27586;51.124;4.182;2024-02-21T01:00:34;9.70;99.90
41904;DHT22;27586;51.124;4.182;2024-02-21T01:03:00;9.70;99.90
41904;DHT22;27586;51.124;4.182;2024-02-21T01:05:26;9.60;99.90
41904;DHT22;27586;51.124;4.182;2024-02-21T01:07:52;9.70;99.90
41904;DHT22;27586;51.124;4.182;2024-02-21T01:10:18;9.70;99.90
41904;DHT22;27586;51.124;4.182;2024-02-21T01:12:44;9.60;99.90
41904;DHT22;27586;51.124;4.182;2024-02-21T01:15:09;9.60;99.90
41904;DHT22;27586;51.124;4.182;2024-02-21T01:17:35;9.60;99.90
41904;DHT22;27586;51.124;4.182;2024-02-21T01:20:02;9.50;99.90
41904;DHT22;27586;51.124;4.182;2024-02-21T01:22:28;9.50;99.90
41904;DHT22;27586;51.124;4.182;2024-02-21T01:24:54;9.60;99.90
41904;DHT22;27586;51.124;4.182;2024-02-21T01:27:19;9.50;99.90
41904;DHT22;27586;51.124;4.182;2024-02-21T01:29:46;9.50;99.90
41904;DHT22;27586;51.124;4.182;2024-02-21T01:32:13;9.40;99.90
41904;DHT22;27586;51.124;4.182;2024-02-21T01:34:38;9.40;99.90
41904;DHT22;27586;51.124;4.182;2024-02-21T01:37:04;9.40;99.90
41904;DHT22;27586;51.124;4.182;2024-02-21T01:39:32;9.40;99.90
41904;DHT22;27586;51.124;4.182;2024-02-21T01:41:58;9.40;99.90
41904;DHT22;27586;51.124;4.182;2024-02-21T01:44:24;9.30;99.90
41904;DHT22;27586;51.124;4.182;2024-02-21T01:46:50;9.30;99.90
41904;DHT22;27586;51.124;4.182;2024-02-21T01:49:17;9.30;99.90
41904;DHT22;27586;51.124;4.182;2024-02-21T01:51:43;9.40;99.90
41904;DHT22;27586;51.124;4.182;2024-02-21T01:54:10;9.40;99.90
41904;DHT22;27586;51.124;4.182;2024-02-21T01:56:36;9.40;99.90
41904;DHT22;27586;51.124;4.182;2024-02-21T01:59:02;9.30;99.90
41904;DHT22;27586;51.124;4.182;2024-02-21T02:01:29;9.30;99.90
41904;DHT22;27586;51.124;4.182;2024-02-21T02:03:55;9.30;99.90
41904;DHT22;27586;51.124;4.182;2024-02-21T02:06:21;9.30;99.90
41904;DHT22;27586;51.124;4.182;2024-02-21T02:08:46;9.30;99.90
41904;DHT22;27586;51.124;4.182;2024-02-21T02:11:13;9.30;99.90
41904;DHT22;27586;51.124;4.182;2024-02-21T02:13:39;9.30;99.90
41904;DHT22;27586;51.124;4.182;2024-02-21T02:16:05;9.30;99.90
41904;DHT22;27586;51.124;4.182;2024-02-21T02:18:31;9.20;99.90
41904;DHT22;27586;51.124;4.182;2024-02-21T02:20:57;9.30;99.90
41904;DHT22;27586;51.124;4.182;2024-02-21T02:23:31;9.30;99.90
41904;DHT22;27586;51.124;4.182;2024-02-21T02:25:57;9.30;99.90
41904;DHT22;27586;51.124;4.182;2024-02-21T02:28:24;9.30;99.90
41904;DHT22;27586;51.124;4.182;2024-02-21T02:30:50;9.40;99.90
41904;DHT22;27586;51.124;4.182;2024-02-21T02:33:16;9.40;99.90
41904;DHT22;27586;51.124;4.182;2024-02-21T02:35:45;9.30;99.90
41904;DHT22;27586;51.124;4.182;2024-02-21T02:38:11;9.30;99.90
41904;DHT22;27586;51.124;4.182;2024-02-21T02:40:38;9.30;99.90
41904;DHT22;27586;51.124;4.182;2024-02-21T02:43:04;9.30;99.90
41904;DHT22;27586;51.124;4.182;2024-02-21T02:45:29;9.30;99.90
41904;DHT22;27586;51.124;4.182;2024-02-21T02:47:56;9.20;99.90
41904;DHT22;27586;51.124;4.182;2024-02-21T02:50:25;9.10;99.90
41904;DHT22;27586;51.124;4.182;2024-02-21T02:52:52;9.10;99.90
41904;DHT22;27586;51.124;4.182;2024-02-21T02:55:18;9.10;99.90
41904;DHT22;27586;51.124;4.182;2024-02-21T02:57:43;9.10;99.90
41904;DHT22;27586;51.124;4.182;2024-02-21T03:00:12;9.10;99.90
41904;DHT22;27586;51.124;4.182;2024-02-21T03:02:40;9.00;99.90
41904;DHT22;27586;51.124;4.182;2024-02-21T03:07:39;9.00;99.90
41904;DHT22;27586;51.124;4.182;2024-02-21T03:10:05;9.10;99.90
41904;DHT22;27586;51.124;4.182;2024-02-21T03:12:30;9.00;99.90
41904;DHT22;27586;51.124;4.182;2024-02-21T03:14:56;9.00;99.90
41904;DHT22;27586;51.124;4.182;2024-02-21T03:17:22;9.00;99.90
41904;DHT22;27586;51.124;4.182;2024-02-21T03:19:48;9.00;99.90
41904;DHT22;27586;51.124;4.182;2024-02-21T03:22:15;9.00;99.90
41904;DHT22;27586;51.124;4.182;2024-02-21T03:24:42;9.10;99.90
41904;DHT22;27586;51.124;4.182;2024-02-21T03:27:07;9.10;99.90
41904;DHT22;27586;51.124;4.182;2024-02-21T03:29:33;9.10;99.90
41904;DHT22;27586;51.124;4.182;2024-02-21T03:31:59;9.00;99.90
41904;DHT22;27586;51.124;4.182;2024-02-21T03:34:25;9.10;99.90
41904;DHT22;27586;51.124;4.182;2024-02-21T03:36:50;9.10;99.90
41904;DHT22;27586;51.124;4.182;2024-02-21T03:39:16;9.20;99.90
41904;DHT22;27586;51.124;4.182;2024-02-21T03:41:42;9.10;99.90
41904;DHT22;27586;51.124;4.182;2024-02-21T03:44:07;9.10;99.90
41904;DHT22;27586;51.124;4.182;2024-02-21T03:46:33;9.20;99.90
41904;DHT22;27586;51.124;4.182;2024-02-21T03:48:58;9.20;99.90
41904;DHT22;27586;51.124;4.182;2024-02-21T03:51:26;9.20;99.90
41904;DHT22;27586;51.124;4.182;2024-02-21T03:53:51;9.20;99.90
41904;DHT22;27586;51.124;4.182;2024-02-21T03:56:17;9.30;99.90
41904;DHT22;27586;51.124;4.182;2024-02-21T03:58:43;9.20;99.90
41904;DHT22;27586;51.124;4.182;2024-02-21T04:01:08;9.20;99.90
41904;DHT22;27586;51.124;4.182;2024-02-21T04:03:34;9.30;99.90
41904;DHT22;27586;51.124;4.182;2024-02-21T04:06:00;9.30;99.90
41904;DHT22;27586;51.124;4.182;2024-02-21T04:08:25;9.30;99.90
41904;DHT22;27586;51.124;4.182;2024-02-21T04:10:51;9.30;99.90
41904;DHT22;27586;51.124;4.182;2024-02-21T04:13:17;9.30;99.90
41904;DHT22;27586;51.124;4.182;2024-02-21T04:15:43;9.30;99.90
41904;DHT22;27586;51.124;4.182;2024-02-21T04:18:08;9.30;99.90
41904;DHT22;27586;51.124;4.182;2024-02-21T04:20:34;9.30;99.90
41904;DHT22;27586;51.124;4.182;2024-02-21T04:23:01;9.30;99.90
41904;DHT22;27586;51.124;4.182;2024-02-21T04:25:26;9.30;99.90
41904;DHT22;27586;51.124;4.182;2024-02-21T04:27:52;9.30;99.90
41904;DHT22;27586;51.124;4.182;2024-02-21T04:30:18;9.30;99.90
41904;DHT22;27586;51.124;4.182;2024-02-21T04:32:43;9.30;99.90
41904;DHT22;27586;51.124;4.182;2024-02-21T04:35:09;9.30;99.90
41904;DHT22;27586;51.124;4.182;2024-02-21T04:37:35;9.40;99.90
41904;DHT22;27586;51.124;4.182;2024-02-21T04:40:00;9.40;99.90
41904;DHT22;27586;51.124;4.182;2024-02-21T04:42:26;9.40;99.90
41904;DHT22;27586;51.124;4.182;2024-02-21T04:44:52;9.30;99.90
41904;DHT22;27586;51.124;4.182;2024-02-21T04:47:19;9.30;99.90
41904;DHT22;27586;51.124;4.182;2024-02-21T04:49:45;9.30;99.90
41904;DHT22;27586;51.124;4.182;2024-02-21T04:52:11;9.30;99.90
41904;DHT22;27586;51.124;4.182;2024-02-21T04:54:37;9.20;99.90
41904;DHT22;27586;51.124;4.182;2024-02-21T04:57:03;9.20;99.90
41904;DHT22;27586;51.124;4.182;2024-02-21T04:59:29;9.20;99.90
41904;DHT22;27586;51.124;4.182;2024-02-21T05:01:55;9.20;99.90
41904;DHT22;27586;51.124;4.182;2024-02-21T05:04:21;9.20;99.90
41904;DHT22;27586;51.124;4.182;2024-02-21T05:06:46;9.10;99.90
41904;DHT22;27586;51.124;4.182;2024-02-21T05:09:12;9.10;99.90
41904;DHT22;27586;51.124;4.182;2024-02-21T05:11:38;9.10;99.90
41904;DHT22;27586;51.124;4.182;2024-02-21T05:14:04;9.10;99.90
41904;DHT22;27586;51.124;4.182;2024-02-21T05:16:33;9.20;99.90
41904;DHT22;27586;51.124;4.182;2024-02-21T05:18:59;9.20;99.90
41904;DHT22;27586;51.124;4.182;2024-02-21T05:21:25;9.20;99.90
41904;DHT22;27586;51.124;4.182;2024-02-21T05:23:51;9.20;99.90
41904;DHT22;27586;51.124;4.182;2024-02-21T05:26:21;9.10;99.90
41904;DHT22;27586;51.124;4.182;2024-02-21T05:28:48;9.10;99.90
41904;DHT22;27586;51.124;4.182;2024-02-21T05:31:13;9.10;99.90
41904;DHT22;27586;51.124;4.182;2024-02-21T05:33:39;9.10;99.90
41904;DHT22;27586;51.124;4.182;2024-02-21T05:36:05;9.10;99.90
41904;DHT22;27586;51.124;4.182;2024-02-21T05:38:32;9.10;99.90
41904;DHT22;27586;51.124;4.182;2024-02-21T05:40:57;9.10;99.90
41904;DHT22;27586;51.124;4.182;2024-02-21T05:43:23;9.00;99.90
41904;DHT22;27586;51.124;4.182;2024-02-21T05:45:49;9.10;99.90
41904;DHT22;27586;51.124;4.182;2024-02-21T05:48:14;9.10;99.90
41904;DHT22;27586;51.124;4.182;2024-02-21T05:50:40;9.00;99.90
41904;DHT22;27586;51.124;4.182;2024-02-21T05:53:06;9.00;99.90
41904;DHT22;27586;51.124;4.182;2024-02-21T05:55:31;9.00;99.90
41904;DHT22;27586;51.124;4.182;2024-02-21T05:57:57;9.00;99.90
41904;DHT22;27586;51.124;4.182;2024-02-21T06:00:23;9.00;99.90
41904;DHT22;27586;51.124;4.182;2024-02-21T06:02:48;9.00;99.90
41904;DHT22;27586;51.124;4.182;2024-02-21T06:05:15;9.10;99.90
41904;DHT22;27586;51.124;4.182;2024-02-21T06:07:40;9.00;99.90
41904;DHT22;27586;51.124;4.182;2024-02-21T06:10:07;9.00;99.90
41904;DHT22;27586;51.124;4.182;2024-02-21T06:12:33;9.00;99.90
41904;DHT22;27586;51.124;4.182;2024-02-21T06:14:58;9.00;99.90
41904;DHT22;27586;51.124;4.182;2024-02-21T06:17:24;8.90;99.90
41904;DHT22;27586;51.124;4.182;2024-02-21T06:19:50;9.00;99.90
41904;DHT22;27586;51.124;4.182;2024-02-21T06:22:15;9.00;99.90
41904;DHT22;27586;51.124;4.182;2024-02-21T06:24:41;9.00;99.90
41904;DHT22;27586;51.124;4.182;2024-02-21T06:27:08;9.00;99.90
41904;DHT22;27586;51.124;4.182;2024-02-21T06:29:34;9.00;99.90
41904;DHT22;27586;51.124;4.182;2024-02-21T06:32:00;9.10;99.90
41904;DHT22;27586;51.124;4.182;2024-02-21T06:34:26;9.00;99.90
41904;DHT22;27586;51.124;4.182;2024-02-21T06:36:51;9.00;99.90
41904;DHT22;27586;51.124;4.182;2024-02-21T06:39:17;9.00;99.90
41904;DHT22;27586;51.124;4.182;2024-02-21T06:41:43;9.10;99.90
41904;DHT22;27586;51.124;4.182;2024-02-21T06:44:09;9.10;99.90
41904;DHT22;27586;51.124;4.182;2024-02-21T06:46:35;9.10;99.90
41904;DHT22;27586;51.124;4.182;2024-02-21T06:49:01;9.10;99.90
41904;DHT22;27586;51.124;4.182;2024-02-21T06:51:28;9.10;99.90
41904;DHT22;27586;51.124;4.182;2024-02-21T06:53:54;9.20;99.90
41904;DHT22;27586;51.124;4.182;2024-02-21T06:56:20;9.10;99.90
41904;DHT22;27586;51.124;4.182;2024-02-21T06:58:46;9.10;99.90
41904;DHT22;27586;51.124;4.182;2024-02-21T07:01:11;9.10;99.90
41904;DHT22;27586;51.124;4.182;2024-02-21T07:03:37;9.10;99.90
41904;DHT22;27586;51.124;4.182;2024-02-21T07:06:03;9.10;99.90
41904;DHT22;27586;51.124;4.182;2024-02-21T07:08:29;9.20;99.90
41904;DHT22;27586;51.124;4.182;2024-02-21T07:10:55;9.20;99.90
41904;DHT22;27586;51.124;4.182;2024-02-21T07:13:21;9.30;99.90
41904;DHT22;27586;51.124;4.182;2024-02-21T07:15:48;9.30;99.90
41904;DHT22;27586;51.124;4.182;2024-02-21T07:18:14;9.30;99.90
41904;DHT22;27586;51.124;4.182;2024-02-21T07:20:39;9.30;99.90
41904;DHT22;27586;51.124;4.182;2024-02-21T07:23:07;9.30;99.90
41904;DHT22;27586;51.124;4.182;2024-02-21T07:25:33;9.30;99.90
41904;DHT22;27586;51.124;4.182;2024-02-21T07:27:58;9.30;99.90
41904;DHT22;27586;51.124;4.182;2024-02-21T07:30:24;9.30;99.90
41904;DHT22;27586;51.124;4.182;2024-02-21T07:32:50;9.30;99.90
41904;DHT22;27586;51.124;4.182;2024-02-21T07:35:17;9.30;99.90
41904;DHT22;27586;51.124;4.182;2024-02-21T07:37:43;9.30;99.90
41904;DHT22;27586;51.124;4.182;2024-02-21T07:40:16;9.30;99.90
41904;DHT22;27586;51.124;4.182;2024-02-21T07:42:42;9.30;99.90
41904;DHT22;27586;51.124;4.182;2024-02-21T07:45:08;9.30;99.90
41904;DHT22;27586;51.124;4.182;2024-02-21T07:47:36;9.30;99.90
41904;DHT22;27586;51.124;4.182;2024-02-21T07:50:05;9.30;99.90
41904;DHT22;27586;51.124;4.182;2024-02-21T07:52:31;9.40;99.90
41904;DHT22;27586;51.124;4.182;2024-02-21T07:54:56;9.40;99.90
41904;DHT22;27586;51.124;4.182;2024-02-21T07:57:22;9.40;99.90
41904;DHT22;27586;51.124;4.182;2024-02-21T07:59:48;9.40;99.90
41904;DHT22;27586;51.124;4.182;2024-02-21T08:02:15;9.40;99.90
41904;DHT22;27586;51.124;4.182;2024-02-21T08:04:42;9.50;99.90
41904;DHT22;27586;51.124;4.182;2024-02-21T08:07:08;9.40;99.90
41904;DHT22;27586;51.124;4.182;2024-02-21T08:09:35;9.50;99.90
41904;DHT22;27586;51.124;4.182;2024-02-21T08:12:02;9.50;99.90
41904;DHT22;27586;51.124;4.182;2024-02-21T08:14:27;9.50;99.90
41904;DHT22;27586;51.124;4.182;2024-02-21T08:16:53;9.60;99.90
41904;DHT22;27586;51.124;4.182;2024-02-21T08:19:20;9.60;99.90
41904;DHT22;27586;51.124;4.182;2024-02-21T08:21:46;9.60;99.90
41904;DHT22;27586;51.124;4.182;2024-02-21T08:24:15;9.70;99.90
41904;DHT22;27586;51.124;4.182;2024-02-21T08:26:41;9.80;99.90
41904;DHT22;27586;51.124;4.182;2024-02-21T08:29:07;9.80;99.90
41904;DHT22;27586;51.124;4.182;2024-02-21T08:31:33;9.80;99.90
41904;DHT22;27586;51.124;4.182;2024-02-21T08:34:00;9.80;99.90
41904;DHT22;27586;51.124;4.182;2024-02-21T08:36:33;9.80;99.90
41904;DHT22;27586;51.124;4.182;2024-02-21T08:39:00;9.80;99.90
41904;DHT22;27586;51.124;4.182;2024-02-21T08:41:26;9.70;99.90
41904;DHT22;27586;51.124;4.182;2024-02-21T08:43:53;9.80;99.90
41904;DHT22;27586;51.124;4.182;2024-02-21T08:46:20;9.90;99.90
41904;DHT22;27586;51.124;4.182;2024-02-21T08:48:46;9.80;99.90
41904;DHT22;27586;51.124;4.182;2024-02-21T08:51:13;9.80;99.90
41904;DHT22;27586;51.124;4.182;2024-02-21T08:53:38;9.80;99.90
41904;DHT22;27586;51.124;4.182;2024-02-21T08:56:05;9.90;99.90
41904;DHT22;27586;51.124;4.182;2024-02-21T08:58:31;9.80;99.90
41904;DHT22;27586;51.124;4.182;2024-02-21T09:00:56;9.80;99.90
41904;DHT22;27586;51.124;4.182;2024-02-21T09:03:22;9.90;99.90
41904;DHT22;27586;51.124;4.182;2024-02-21T09:05:48;9.90;99.90
41904;DHT22;27586;51.124;4.182;2024-02-21T09:08:14;9.90;99.90
41904;DHT22;27586;51.124;4.182;2024-02-21T09:10:40;10.00;99.90
41904;DHT22;27586;51.124;4.182;2024-02-21T09:13:06;10.00;99.90
41904;DHT22;27586;51.124;4.182;2024-02-21T09:15:33;10.00;99.90
41904;DHT22;27586;51.124;4.182;2024-02-21T09:17:59;10.10;99.90
41904;DHT22;27586;51.124;4.182;2024-02-21T09:20:24;10.10;99.90
41904;DHT22;27586;51.124;4.182;2024-02-21T09:22:50;10.20;99.90
41904;DHT22;27586;51.124;4.182;2024-02-21T09:25:17;10.30;99.90
41904;DHT22;27586;51.124;4.182;2024-02-21T09:27:44;10.30;99.90
41904;DHT22;27586;51.124;4.182;2024-02-21T09:30:10;10.40;99.90
41904;DHT22;27586;51.124;4.182;2024-02-21T09:32:37;10.30;99.90
41904;DHT22;27586;51.124;4.182;2024-02-21T09:35:03;10.30;99.90
41904;DHT22;27586;51.124;4.182;2024-02-21T09:37:31;10.40;99.90
41904;DHT22;27586;51.124;4.182;2024-02-21T09:39:56;10.40;99.90
41904;DHT22;27586;51.124;4.182;2024-02-21T09:45:00;10.40;99.90
41904;DHT22;27586;51.124;4.182;2024-02-21T09:50:24;10.50;99.90
41904;DHT22;27586;51.124;4.182;2024-02-21T09:52:53;10.50;99.90
41904;DHT22;27586;51.124;4.182;2024-02-21T09:55:20;10.40;99.90
41904;DHT22;27586;51.124;4.182;2024-02-21T09:57:46;10.40;99.90
41904;DHT22;27586;51.124;4.182;2024-02-21T10:00:13;10.40;99.90
41904;DHT22;27586;51.124;4.182;2024-02-21T10:02:47;10.40;99.90
41904;DHT22;27586;51.124;4.182;2024-02-21T10:05:14;10.20;99.90
41904;DHT22;27586;51.124;4.182;2024-02-21T10:07:40;10.30;99.90
41904;DHT22;27586;51.124;4.182;2024-02-21T10:10:06;10.30;99.90
41904;DHT22;27586;51.124;4.182;2024-02-21T10:12:32;10.30;99.90
41904;DHT22;27586;51.124;4.182;2024-02-21T10:15:05;10.40;99.90
41904;DHT22;27586;51.124;4.182;2024-02-21T10:17:32;10.50;99.90
41904;DHT22;27586;51.124;4.182;2024-02-21T10:20:12;10.50;99.90
41904;DHT22;27586;51.124;4.182;2024-02-21T10:22:39;10.60;99.90
41904;DHT22;27586;51.124;4.182;2024-02-21T10:25:12;10.70;99.90
41904;DHT22;27586;51.124;4.182;2024-02-21T10:27:39;10.70;99.90
41904;DHT22;27586;51.124;4.182;2024-02-21T10:30:12;10.60;99.90
41904;DHT22;27586;51.124;4.182;2024-02-21T10:32:49;10.60;99.90
41904;DHT22;27586;51.124;4.182;2024-02-21T10:35:25;10.60;99.90
41904;DHT22;27586;51.124;4.182;2024-02-21T10:37:51;10.60;99.90
41904;DHT22;27586;51.124;4.182;2024-02-21T10:40:27;10.70;99.90
41904;DHT22;27586;51.124;4.182;2024-02-21T10:42:59;10.70;99.90
41904;DHT22;27586;51.124;4.182;2024-02-21T10:45:34;10.60;99.90
41904;DHT22;27586;51.124;4.182;2024-02-21T10:48:14;10.60;99.90
41904;DHT22;27586;51.124;4.182;2024-02-21T10:53:50;10.70;99.90
41904;DHT22;27586;51.124;4.182;2024-02-21T10:58:49;10.70;99.90
41904;DHT22;27586;51.124;4.182;2024-02-21T11:01:17;10.80;99.90
41904;DHT22;27586;51.124;4.182;2024-02-21T11:03:45;10.90;99.90
41904;DHT22;27586;51.124;4.182;2024-02-21T11:06:12;10.90;99.90
41904;DHT22;27586;51.124;4.182;2024-02-21T11:08:38;10.90;99.90
41904;DHT22;27586;51.124;4.182;2024-02-21T11:11:05;10.90;99.90
41904;DHT22;27586;51.124;4.182;2024-02-21T11:13:37;10.90;99.90
41904;DHT22;27586;51.124;4.182;2024-02-21T11:18:33;11.00;99.90
41904;DHT22;27586;51.124;4.182;2024-02-21T11:20:59;10.90;99.90
41904;DHT22;27586;51.124;4.182;2024-02-21T11:23:27;11.00;99.90
41904;DHT22;27586;51.124;4.182;2024-02-21T11:26:07;11.00;99.90
41904;DHT22;27586;51.124;4.182;2024-02-21T11:28:33;10.90;99.90
41904;DHT22;27586;51.124;4.182;2024-02-21T11:31:12;10.90;99.90
41904;DHT22;27586;51.124;4.182;2024-02-21T11:33:42;10.90;99.90
41904;DHT22;27586;51.124;4.182;2024-02-21T11:36:11;10.90;99.90
41904;DHT22;27586;51.124;4.182;2024-02-21T11:38:48;10.90;99.90
41904;DHT22;27586;51.124;4.182;2024-02-21T11:41:13;10.90;99.90
41904;DHT22;27586;51.124;4.182;2024-02-21T11:43:39;10.80;99.90
41904;DHT22;27586;51.124;4.182;2024-02-21T11:46:05;10.90;99.90
41904;DHT22;27586;51.124;4.182;2024-02-21T11:48:32;11.10;99.90
41904;DHT22;27586;51.124;4.182;2024-02-21T11:50:57;11.10;99.90
41904;DHT22;27586;51.124;4.182;2024-02-21T11:53:23;11.10;99.90
41904;DHT22;27586;51.124;4.182;2024-02-21T11:55:50;11.00;99.90
41904;DHT22;27586;51.124;4.182;2024-02-21T11:58:16;11.10;99.90
41904;DHT22;27586;51.124;4.182;2024-02-21T12:00:42;11.10;99.90
41904;DHT22;27586;51.124;4.182;2024-02-21T12:03:08;11.10;99.90
41904;DHT22;27586;51.124;4.182;2024-02-21T12:05:34;11.00;99.90
41904;DHT22;27586;51.124;4.182;2024-02-21T12:08:00;11.00;99.90
41904;DHT22;27586;51.124;4.182;2024-02-21T12:10:26;11.00;99.90
41904;DHT22;27586;51.124;4.182;2024-02-21T12:13:07;10.90;99.90
41904;DHT22;27586;51.124;4.182;2024-02-21T12:15:33;11.00;99.90
41904;DHT22;27586;51.124;4.182;2024-02-21T12:17:59;11.00;99.90
41904;DHT22;27586;51.124;4.182;2024-02-21T12:20:25;11.00;99.90
41904;DHT22;27586;51.124;4.182;2024-02-21T12:22:52;10.70;99.90
41904;DHT22;27586;51.124;4.182;2024-02-21T12:25:21;10.90;99.90
41904;DHT22;27586;51.124;4.182;2024-02-21T12:27:52;10.90;99.90
41904;DHT22;27586;51.124;4.182;2024-02-21T12:30:18;10.90;99.90
41904;DHT22;27586;51.124;4.182;2024-02-21T12:32:47;10.90;99.90
41904;DHT22;27586;51.124;4.182;2024-02-21T12:35:14;10.90;99.90
41904;DHT22;27586;51.124;4.182;2024-02-21T12:37:39;11.00;99.90
41904;DHT22;27586;51.124;4.182;2024-02-21T12:40:06;10.90;99.90
41904;DHT22;27586;51.124;4.182;2024-02-21T12:42:35;10.90;99.90
41904;DHT22;27586;51.124;4.182;2024-02-21T12:45:02;10.90;99.90
41904;DHT22;27586;51.124;4.182;2024-02-21T12:47:29;10.90;99.90
41904;DHT22;27586;51.124;4.182;2024-02-21T12:49:55;11.00;99.90
41904;DHT22;27586;51.124;4.182;2024-02-21T12:52:21;11.00;99.90
41904;DHT22;27586;51.124;4.182;2024-02-21T12:54:46;11.00;99.90
41904;DHT22;27586;51.124;4.182;2024-02-21T12:57:12;11.00;99.90
41904;DHT22;27586;51.124;4.182;2024-02-21T12:59:38;11.10;99.90
41904;DHT22;27586;51.124;4.182;2024-02-21T13:02:04;11.20;99.90
41904;DHT22;27586;51.124;4.182;2024-02-21T13:04:29;11.30;99.90
41904;DHT22;27586;51.124;4.182;2024-02-21T13:06:55;11.20;99.90
41904;DHT22;27586;51.124;4.182;2024-02-21T13:09:21;11.20;99.90
41904;DHT22;27586;51.124;4.182;2024-02-21T13:11:47;11.20;99.90
41904;DHT22;27586;51.124;4.182;2024-02-21T13:14:13;11.30;99.90
41904;DHT22;27586;51.124;4.182;2024-02-21T13:16:38;11.30;99.90
41904;DHT22;27586;51.124;4.182;2024-02-21T13:19:08;11.40;99.90
41904;DHT22;27586;51.124;4.182;2024-02-21T13:21:37;11.40;99.90
41904;DHT22;27586;51.124;4.182;2024-02-21T13:24:03;11.50;99.90
41904;DHT22;27586;51.124;4.182;2024-02-21T13:26:28;11.40;99.90
41904;DHT22;27586;51.124;4.182;2024-02-21T13:28:54;11.40;99.90
41904;DHT22;27586;51.124;4.182;2024-02-21T13:31:20;11.50;99.90
41904;DHT22;27586;51.124;4.182;2024-02-21T13:33:46;11.40;99.90
41904;DHT22;27586;51.124;4.182;2024-02-21T13:36:12;11.40;99.90
41904;DHT22;27586;51.124;4.182;2024-02-21T13:38:38;11.40;99.90
41904;DHT22;27586;51.124;4.182;2024-02-21T13:41:07;11.40;99.90
41904;DHT22;27586;51.124;4.182;2024-02-21T13:43:33;11.30;99.90
41904;DHT22;27586;51.124;4.182;2024-02-21T13:46:02;11.20;99.90
41904;DHT22;27586;51.124;4.182;2024-02-21T13:48:30;11.10;99.90
41904;DHT22;27586;51.124;4.182;2024-02-21T13:50:56;11.00;99.90
41904;DHT22;27586;51.124;4.182;2024-02-21T13:53:22;11.00;99.90
41904;DHT22;27586;51.124;4.182;2024-02-21T13:55:49;11.00;99.90
41904;DHT22;27586;51.124;4.182;2024-02-21T13:58:15;11.00;99.90
41904;DHT22;27586;51.124;4.182;2024-02-21T14:00:41;10.90;99.90
41904;DHT22;27586;51.124;4.182;2024-02-21T14:03:07;11.00;99.90
41904;DHT22;27586;51.124;4.182;2024-02-21T14:05:32;10.90;99.90
41904;DHT22;27586;51.124;4.182;2024-02-21T14:07:58;10.80;99.90
41904;DHT22;27586;51.124;4.182;2024-02-21T14:10:23;10.80;99.90
41904;DHT22;27586;51.124;4.182;2024-02-21T14:12:49;10.80;99.90
41904;DHT22;27586;51.124;4.182;2024-02-21T14:15:15;10.80;99.90
41904;DHT22;27586;51.124;4.182;2024-02-21T14:17:42;10.80;99.90
41904;DHT22;27586;51.124;4.182;2024-02-21T14:20:08;10.80;99.90
41904;DHT22;27586;51.124;4.182;2024-02-21T14:22:34;10.80;99.90
41904;DHT22;27586;51.124;4.182;2024-02-21T14:25:00;10.70;99.90
41904;DHT22;27586;51.124;4.182;2024-02-21T14:27:26;10.60;99.90
41904;DHT22;27586;51.124;4.182;2024-02-21T14:29:52;10.60;99.90
41904;DHT22;27586;51.124;4.182;2024-02-21T14:32:18;10.60;99.90
41904;DHT22;27586;51.124;4.182;2024-02-21T14:34:45;10.70;99.90
41904;DHT22;27586;51.124;4.182;2024-02-21T14:37:11;10.60;99.90
41904;DHT22;27586;51.124;4.182;2024-02-21T14:39:37;10.60;99.90
41904;DHT22;27586;51.124;4.182;2024-02-21T14:42:03;10.60;99.90
41904;DHT22;27586;51.124;4.182;2024-02-21T14:44:29;10.60;99.90
41904;DHT22;27586;51.124;4.182;2024-02-21T14:46:54;10.50;99.90
41904;DHT22;27586;51.124;4.182;2024-02-21T14:49:20;10.50;99.90
41904;DHT22;27586;51.124;4.182;2024-02-21T14:51:46;10.50;99.90
41904;DHT22;27586;51.124;4.182;2024-02-21T14:54:12;10.50;99.90
41904;DHT22;27586;51.124;4.182;2024-02-21T14:56:37;10.40;99.90
41904;DHT22;27586;51.124;4.182;2024-02-21T14:59:04;10.50;99.90
41904;DHT22;27586;51.124;4.182;2024-02-21T15:01:35;10.40;99.90
41904;DHT22;27586;51.124;4.182;2024-02-21T15:04:03;10.40;99.90
41904;DHT22;27586;51.124;4.182;2024-02-21T15:06:29;10.50;99.90
41904;DHT22;27586;51.124;4.182;2024-02-21T15:08:57;10.40;99.90
41904;DHT22;27586;51.124;4.182;2024-02-21T15:11:22;10.40;99.90
41904;DHT22;27586;51.124;4.182;2024-02-21T15:13:49;10.40;99.90
41904;DHT22;27586;51.124;4.182;2024-02-21T15:16:14;10.40;99.90
41904;DHT22;27586;51.124;4.182;2024-02-21T15:18:41;10.30;99.90
41904;DHT22;27586;51.124;4.182;2024-02-21T15:21:07;10.30;99.90
41904;DHT22;27586;51.124;4.182;2024-02-21T15:23:38;10.30;99.90
41904;DHT22;27586;51.124;4.182;2024-02-21T15:26:04;10.30;99.90
41904;DHT22;27586;51.124;4.182;2024-02-21T15:28:30;10.30;99.90
41904;DHT22;27586;51.124;4.182;2024-02-21T15:30:56;10.20;99.90
41904;DHT22;27586;51.124;4.182;2024-02-21T15:33:22;10.10;99.90
41904;DHT22;27586;51.124;4.182;2024-02-21T15:35:48;10.10;99.90
41904;DHT22;27586;51.124;4.182;2024-02-21T15:38:14;10.20;99.90
41904;DHT22;27586;51.124;4.182;2024-02-21T15:40:39;10.20;99.90
41904;DHT22;27586;51.124;4.182;2024-02-21T15:43:05;10.20;99.90
41904;DHT22;27586;51.124;4.182;2024-02-21T15:45:31;10.20;99.90
41904;DHT22;27586;51.124;4.182;2024-02-21T15:47:57;10.20;99.90
41904;DHT22;27586;51.124;4.182;2024-02-21T15:50:22;10.10;99.90
41904;DHT22;27586;51.124;4.182;2024-02-21T15:52:48;10.10;99.90